createdAt,value
2018-06-01T00:01:25.627Z,19.60
2018-06-01T00:03:53.085Z,19.60
2018-06-01T00:06:20.535Z,19.60
2018-06-01T00:08:47.963Z,19.50
2018-06-01T00:11:15.454Z,19.50
2018-06-01T00:13:42.889Z,19.40
2018-06-01T00:16:10.312Z,19.40
2018-06-01T00:18:38.517Z,19.40
2018-06-01T00:21:05.981Z,19.40
2018-06-01T00:23:33.458Z,19.50
2018-06-01T00:26:00.908Z,19.50
2018-06-01T00:28:28.363Z,19.40
2018-06-01T00:30:55.817Z,19.30
2018-06-01T00:33:23.293Z,19.30
2018-06-01T00:35:50.748Z,19.20
2018-06-01T00:38:18.179Z,19.30
2018-06-01T00:40:45.658Z,19.30
2018-06-01T00:43:13.126Z,19.30
2018-06-01T00:45:40.584Z,19.30
2018-06-01T00:48:08.040Z,19.20
2018-06-01T00:50:35.597Z,19.20
2018-06-01T00:53:03.061Z,19.20
2018-06-01T00:55:30.505Z,19.30
2018-06-01T00:57:57.953Z,19.30
2018-06-01T01:00:25.386Z,19.20
2018-06-01T01:02:52.882Z,19.20
2018-06-01T01:05:20.320Z,19.20
2018-06-01T01:07:47.793Z,19.20
2018-06-01T01:10:15.259Z,19.10
2018-06-01T01:12:42.718Z,19.20
2018-06-01T01:15:10.259Z,19.20
2018-06-01T01:17:37.735Z,19.20
2018-06-01T01:20:05.174Z,19.10
2018-06-01T01:22:32.631Z,19.10
2018-06-01T01:25:00.135Z,19.00
2018-06-01T01:27:27.582Z,19.00
2018-06-01T01:29:55.087Z,19.00
2018-06-01T01:32:23.314Z,18.90
2018-06-01T01:34:51.532Z,18.90
2018-06-01T01:37:30.905Z,18.90
2018-06-01T01:39:59.206Z,18.90
2018-06-01T01:42:26.643Z,18.80
2018-06-01T01:44:54.090Z,18.80
2018-06-01T01:47:21.542Z,18.70
2018-06-01T01:49:53.775Z,18.70
2018-06-01T01:52:21.992Z,18.60
2018-06-01T01:54:49.436Z,18.60
2018-06-01T01:57:16.928Z,18.60
2018-06-01T01:59:44.382Z,18.50
2018-06-01T02:02:11.839Z,18.50
2018-06-01T02:04:39.300Z,18.50
2018-06-01T02:07:06.743Z,18.50
2018-06-01T02:09:34.181Z,18.50
2018-06-01T02:12:01.631Z,18.50
2018-06-01T02:14:29.132Z,18.50
2018-06-01T02:16:56.584Z,18.50
2018-06-01T02:19:24.033Z,18.50
2018-06-01T02:21:51.459Z,18.40
2018-06-01T02:24:19.034Z,18.40
2018-06-01T02:26:46.446Z,18.40
2018-06-01T02:29:14.656Z,18.30
2018-06-01T02:31:42.129Z,18.30
2018-06-01T02:34:10.402Z,18.30
2018-06-01T02:36:37.852Z,18.30
2018-06-01T02:39:06.069Z,18.30
2018-06-01T02:41:33.613Z,18.30
2018-06-01T02:44:01.060Z,18.20
2018-06-01T02:46:28.487Z,18.10
2018-06-01T02:48:55.987Z,18.10
2018-06-01T02:51:23.432Z,18.10
2018-06-01T02:53:50.887Z,18.10
2018-06-01T02:56:18.359Z,18.10
2018-06-01T02:58:45.803Z,18.10
2018-06-01T03:01:13.368Z,18.00
2018-06-01T03:03:40.810Z,18.00
2018-06-01T03:06:08.243Z,18.00
2018-06-01T03:08:35.715Z,18.00
2018-06-01T03:11:03.253Z,18.00
2018-06-01T03:13:30.731Z,18.00
2018-06-01T03:15:58.171Z,18.00
2018-06-01T03:18:25.631Z,18.00
2018-06-01T03:20:53.066Z,18.00
2018-06-01T03:23:20.501Z,18.00
2018-06-01T03:25:48.715Z,18.00
2018-06-01T03:28:16.143Z,18.00
2018-06-01T03:30:44.554Z,17.90
2018-06-01T03:33:12.029Z,17.90
2018-06-01T03:35:39.469Z,17.90
2018-06-01T03:38:06.913Z,17.90
2018-06-01T03:40:34.346Z,17.90
2018-06-01T03:43:02.559Z,17.90
2018-06-01T03:45:29.999Z,17.90
2018-06-01T03:47:57.435Z,17.90
2018-06-01T03:50:25.641Z,17.90
2018-06-01T03:52:53.079Z,17.80
2018-06-01T03:55:20.571Z,17.90
2018-06-01T03:57:48.031Z,17.90
2018-06-01T04:00:15.492Z,17.90
2018-06-01T04:02:42.959Z,17.90
2018-06-01T04:05:10.411Z,18.00
2018-06-01T04:07:37.963Z,18.10
2018-06-01T04:10:05.419Z,18.10
2018-06-01T04:12:32.968Z,18.20
2018-06-01T04:15:00.402Z,18.20
2018-06-01T04:17:27.839Z,18.30
2018-06-01T04:19:56.067Z,18.30
2018-06-01T04:22:23.542Z,18.30
2018-06-01T04:24:50.979Z,18.40
2018-06-01T04:27:18.531Z,18.40
2018-06-01T04:29:46.003Z,18.50
2018-06-01T04:32:13.575Z,18.10
2018-06-01T04:34:41.032Z,18.60
2018-06-01T04:37:08.475Z,18.70
2018-06-01T04:39:35.931Z,18.70
2018-06-01T04:42:03.383Z,18.80
2018-06-01T04:44:30.940Z,18.80
2018-06-01T04:46:58.412Z,18.90
2018-06-01T04:49:25.852Z,18.90
2018-06-01T04:51:53.286Z,19.00
2018-06-01T04:54:20.726Z,19.00
2018-06-01T04:56:48.951Z,19.10
2018-06-01T04:59:16.411Z,19.10
2018-06-01T05:01:43.877Z,19.20
2018-06-01T05:04:11.302Z,19.20
2018-06-01T05:06:38.786Z,19.20
2018-06-01T05:09:06.228Z,19.30
2018-06-01T05:11:33.695Z,19.30
2018-06-01T05:14:01.151Z,19.40
2018-06-01T05:16:28.625Z,19.40
2018-06-01T05:18:56.063Z,19.40
2018-06-01T05:21:23.635Z,19.40
2018-06-01T05:23:51.082Z,19.40
2018-06-01T05:26:18.542Z,19.40
2018-06-01T05:28:45.986Z,19.40
2018-06-01T05:31:13.472Z,19.40
2018-06-01T05:33:40.914Z,19.40
2018-06-01T05:36:08.363Z,19.40
2018-06-01T05:38:35.831Z,19.50
2018-06-01T05:41:03.269Z,19.50
2018-06-01T05:43:30.839Z,19.50
2018-06-01T05:45:58.371Z,19.60
2018-06-01T05:48:25.861Z,19.70
2018-06-01T05:50:53.294Z,19.70
2018-06-01T05:53:20.783Z,19.70
2018-06-01T05:55:48.218Z,19.70
2018-06-01T05:58:15.673Z,19.70
2018-06-01T06:00:43.127Z,19.80
2018-06-01T06:03:10.563Z,19.80
2018-06-01T06:05:38.784Z,19.90
2018-06-01T06:08:06.227Z,19.90
2018-06-01T06:10:33.695Z,19.90
2018-06-01T06:13:01.138Z,19.90
2018-06-01T06:15:28.615Z,19.90
2018-06-01T06:17:56.059Z,20.00
2018-06-01T06:20:23.496Z,20.00
2018-06-01T06:22:50.952Z,20.10
2018-06-01T06:25:18.387Z,20.10
2018-06-01T06:27:46.591Z,20.10
2018-06-01T06:30:14.034Z,20.10
2018-06-01T06:32:42.236Z,20.20
2018-06-01T06:35:09.744Z,20.10
2018-06-01T06:37:37.239Z,20.10
2018-06-01T06:40:04.781Z,20.20
2018-06-01T06:42:32.975Z,20.30
2018-06-01T06:45:00.463Z,20.30
2018-06-01T06:47:27.904Z,20.30
2018-06-01T06:49:55.345Z,20.30
2018-06-01T06:52:22.795Z,20.30
2018-06-01T06:54:50.245Z,20.40
2018-06-01T06:57:18.437Z,20.40
2018-06-01T06:59:45.887Z,20.40
2018-06-01T07:02:13.338Z,20.50
2018-06-01T07:04:40.772Z,20.50
2018-06-01T07:07:09.003Z,20.60
2018-06-01T07:09:36.460Z,20.60
2018-06-01T07:12:03.933Z,20.60
2018-06-01T07:14:31.365Z,20.60
2018-06-01T07:16:58.803Z,20.70
2018-06-01T07:19:26.295Z,20.70
2018-06-01T07:21:53.741Z,20.80
2018-06-01T07:24:21.211Z,20.80
2018-06-01T07:26:48.758Z,20.90
2018-06-01T07:29:16.235Z,21.00
2018-06-01T07:31:43.695Z,21.00
2018-06-01T07:34:11.124Z,21.00
2018-06-01T07:36:38.602Z,21.10
2018-06-01T07:39:06.901Z,21.10
2018-06-01T07:41:34.331Z,21.20
2018-06-01T07:44:01.777Z,21.20
2018-06-01T07:46:29.223Z,21.30
2018-06-01T07:48:56.663Z,21.30
2018-06-01T07:51:24.103Z,21.40
2018-06-01T07:53:51.583Z,21.40
2018-06-01T07:56:19.043Z,21.50
2018-06-01T07:58:46.512Z,21.60
2018-06-01T08:01:14.005Z,21.70
2018-06-01T08:03:41.444Z,21.70
2018-06-01T08:06:08.891Z,21.70
2018-06-01T08:08:36.361Z,21.80
2018-06-01T08:11:03.795Z,21.90
2018-06-01T08:13:31.263Z,22.00
2018-06-01T08:15:58.750Z,22.10
2018-06-01T08:18:26.212Z,22.20
2018-06-01T08:20:53.663Z,22.30
2018-06-01T08:23:21.113Z,22.40
2018-06-01T08:25:48.669Z,22.60
2018-06-01T08:28:16.091Z,22.80
2018-06-01T08:30:44.318Z,23.50
2018-06-01T08:33:11.776Z,23.50
2018-06-01T08:35:39.211Z,23.80
2018-06-01T08:38:06.650Z,24.00
2018-06-01T08:40:34.087Z,24.10
2018-06-01T08:43:02.287Z,24.30
2018-06-01T08:45:29.729Z,24.30
2018-06-01T08:47:57.933Z,24.50
2018-06-01T08:50:25.371Z,24.50
2018-06-01T08:52:52.860Z,24.70
2018-06-01T08:55:20.413Z,24.70
2018-06-01T08:57:47.895Z,24.80
2018-06-01T09:00:15.449Z,24.80
2018-06-01T09:02:42.990Z,24.80
2018-06-01T09:05:10.514Z,24.80
2018-06-01T09:07:38.777Z,24.90
2018-06-01T09:10:07.094Z,25.00
2018-06-01T09:12:34.459Z,24.90
2018-06-01T09:15:01.891Z,25.00
2018-06-01T09:17:29.395Z,24.90
2018-06-01T09:19:56.838Z,24.80
2018-06-01T09:22:24.271Z,24.90
2018-06-01T09:24:51.822Z,25.10
2018-06-01T09:27:19.240Z,25.10
2018-06-01T09:29:46.783Z,25.20
2018-06-01T09:32:14.208Z,25.30
2018-06-01T09:34:41.698Z,25.50
2018-06-01T09:37:09.160Z,25.50
2018-06-01T09:39:36.624Z,25.50
2018-06-01T09:42:04.061Z,25.50
2018-06-01T09:44:31.709Z,25.60
2018-06-01T09:46:59.142Z,25.70
2018-06-01T09:49:26.626Z,25.80
2018-06-01T09:51:54.073Z,26.00
2018-06-01T09:54:21.510Z,26.10
2018-06-01T09:56:48.955Z,26.20
2018-06-01T09:59:17.155Z,26.20
2018-06-01T10:01:44.640Z,26.20
2018-06-01T10:04:12.082Z,26.30
2018-06-01T10:06:39.533Z,26.40
2018-06-01T10:09:07.015Z,26.50
2018-06-01T10:11:34.445Z,26.50
2018-06-01T10:14:01.929Z,26.60
2018-06-01T10:16:29.369Z,26.70
2018-06-01T10:18:56.843Z,26.80
2018-06-01T10:21:24.290Z,26.90
2018-06-01T10:23:51.727Z,27.10
2018-06-01T10:26:19.257Z,27.20
2018-06-01T10:28:46.694Z,27.20
2018-06-01T10:31:14.234Z,27.20
2018-06-01T10:33:41.684Z,27.30
2018-06-01T10:36:09.143Z,27.30
2018-06-01T10:38:36.579Z,27.20
2018-06-01T10:41:04.036Z,27.20
2018-06-01T10:43:31.487Z,27.20
2018-06-01T10:45:58.947Z,27.30
2018-06-01T10:48:26.399Z,27.40
2018-06-01T10:50:53.887Z,27.40
2018-06-01T10:53:21.383Z,27.40
2018-06-01T10:55:48.929Z,27.40
2018-06-01T10:58:16.461Z,27.30
2018-06-01T11:00:43.903Z,27.30
2018-06-01T11:03:11.336Z,27.10
2018-06-01T11:05:39.542Z,27.00
2018-06-01T11:08:06.987Z,27.00
2018-06-01T11:10:34.502Z,27.00
2018-06-01T11:13:01.950Z,26.90
2018-06-01T11:15:29.402Z,26.80
2018-06-01T11:17:56.943Z,26.70
2018-06-01T11:20:24.384Z,26.70
2018-06-01T11:22:51.850Z,26.70
2018-06-01T11:25:19.287Z,26.70
2018-06-01T11:27:46.720Z,26.70
2018-06-01T11:30:14.938Z,26.60
2018-06-01T11:32:42.359Z,26.60
2018-06-01T11:35:10.671Z,26.30
2018-06-01T11:37:38.095Z,26.30
2018-06-01T11:40:06.298Z,26.10
2018-06-01T11:42:33.756Z,26.20
2018-06-01T11:45:01.231Z,26.10
2018-06-01T11:47:28.699Z,25.90
2018-06-01T11:49:56.143Z,25.80
2018-06-01T11:52:23.698Z,25.60
2018-06-01T11:54:51.177Z,25.50
2018-06-01T11:57:18.625Z,25.30
2018-06-01T11:59:46.070Z,25.10
2018-06-01T12:02:13.513Z,24.90
2018-06-01T12:04:41.001Z,24.80
2018-06-01T12:07:08.557Z,24.60
2018-06-01T12:09:36.018Z,24.50
2018-06-01T12:12:03.467Z,24.40
2018-06-01T12:14:30.922Z,24.30
2018-06-01T12:16:58.479Z,24.10
2018-06-01T12:19:25.945Z,24.00
2018-06-01T12:21:53.407Z,23.80
2018-06-01T12:24:20.852Z,23.70
2018-06-01T12:26:48.315Z,23.60
2018-06-01T12:29:15.943Z,23.40
2018-06-01T12:31:43.332Z,23.00
2018-06-01T12:34:10.771Z,22.60
2018-06-01T12:36:38.515Z,22.30
2018-06-01T12:39:06.097Z,22.20
2018-06-01T12:41:33.552Z,22.00
2018-06-01T12:44:01.000Z,21.80
2018-06-01T12:46:29.215Z,21.40
2018-06-01T12:48:56.679Z,21.40
2018-06-01T12:51:24.131Z,21.20
2018-06-01T12:53:51.579Z,21.10
2018-06-01T12:56:19.019Z,21.00
2018-06-01T12:58:46.447Z,20.90
2018-06-01T13:01:14.694Z,20.80
2018-06-01T13:03:42.130Z,20.80
2018-06-01T13:06:09.571Z,20.70
2018-06-01T13:08:37.020Z,20.60
2018-06-01T13:11:05.231Z,20.70
2018-06-01T13:13:32.683Z,20.60
2018-06-01T13:16:00.133Z,20.60
2018-06-01T13:18:27.595Z,20.70
2018-06-01T13:20:55.079Z,20.70
2018-06-01T13:23:22.562Z,20.60
2018-06-01T13:25:50.086Z,20.60
2018-06-01T13:28:17.567Z,20.60
2018-06-01T13:30:45.093Z,20.50
2018-06-01T13:33:12.527Z,20.40
2018-06-01T13:35:40.015Z,20.40
2018-06-01T13:38:07.575Z,20.40
2018-06-01T13:40:35.031Z,20.50
2018-06-01T13:43:02.475Z,20.50
2018-06-01T13:45:29.943Z,20.50
2018-06-01T13:47:57.395Z,20.60
2018-06-01T13:50:24.876Z,20.60
2018-06-01T13:52:52.327Z,20.70
2018-06-01T13:55:19.941Z,20.80
2018-06-01T13:57:47.460Z,20.80
2018-06-01T14:00:14.914Z,20.90
2018-06-01T14:02:42.695Z,20.80
2018-06-01T14:05:10.329Z,20.80
2018-06-01T14:07:37.837Z,20.80
2018-06-01T14:10:06.049Z,20.80
2018-06-01T14:12:33.731Z,20.70
2018-06-01T14:15:01.297Z,20.80
2018-06-01T14:17:28.736Z,20.70
2018-06-01T14:19:56.277Z,20.70
2018-06-01T14:22:23.756Z,20.60
2018-06-01T14:24:51.196Z,20.60
2018-06-01T14:27:18.676Z,20.70
2018-06-01T14:29:46.263Z,20.70
2018-06-01T14:32:13.683Z,20.80
2018-06-01T14:34:41.125Z,20.80
2018-06-01T14:37:08.564Z,20.80
2018-06-01T14:39:36.051Z,20.70
2018-06-01T14:42:03.516Z,20.80
2018-06-01T14:44:30.943Z,20.90
2018-06-01T14:46:58.484Z,20.90
2018-06-01T14:49:25.881Z,21.10
2018-06-01T14:51:53.373Z,21.50
2018-06-01T14:54:20.864Z,21.50
2018-06-01T14:56:49.197Z,21.50
2018-06-01T14:59:16.672Z,21.50
2018-06-01T15:01:44.169Z,21.40
2018-06-01T15:04:11.579Z,21.20
2018-06-01T15:06:39.111Z,21.10
2018-06-01T15:09:06.588Z,20.90
2018-06-01T15:11:34.019Z,20.90
2018-06-01T15:14:01.574Z,20.90
2018-06-01T15:16:28.936Z,20.90
2018-06-01T15:18:56.378Z,20.80
2018-06-01T15:21:23.836Z,20.80
2018-06-01T15:23:51.295Z,20.80
2018-06-01T15:26:18.715Z,20.70
2018-06-01T15:28:47.037Z,20.80
2018-06-01T15:31:14.485Z,20.80
2018-06-01T15:33:41.935Z,20.90
2018-06-01T15:36:09.383Z,21.00
2018-06-01T15:38:36.977Z,21.20
2018-06-01T15:41:04.514Z,21.30
2018-06-01T15:43:31.860Z,21.40
2018-06-01T15:45:59.343Z,21.40
2018-06-01T15:48:26.803Z,21.40
2018-06-01T15:50:54.247Z,21.40
2018-06-01T15:53:21.701Z,21.30
2018-06-01T15:55:49.163Z,21.20
2018-06-01T15:58:16.650Z,21.10
2018-06-01T16:00:44.078Z,21.00
2018-06-01T16:03:11.534Z,20.90
2018-06-01T16:05:38.966Z,20.80
2018-06-01T16:08:07.171Z,20.60
2018-06-01T16:10:34.624Z,20.60
2018-06-01T16:13:02.108Z,20.50
2018-06-01T16:15:29.539Z,20.50
2018-06-01T16:17:57.011Z,20.50
2018-06-01T16:20:24.491Z,20.40
2018-06-01T16:22:51.947Z,20.40
2018-06-01T16:25:19.391Z,20.30
2018-06-01T16:27:46.834Z,20.20
2018-06-01T16:30:14.284Z,20.20
2018-06-01T16:32:41.727Z,20.10
2018-06-01T16:35:09.223Z,20.00
2018-06-01T16:37:36.680Z,19.90
2018-06-01T16:40:04.121Z,19.90
2018-06-01T16:42:31.574Z,19.90
2018-06-01T16:44:59.028Z,19.80
2018-06-01T16:47:26.507Z,19.70
2018-06-01T16:49:53.963Z,19.60
2018-06-01T16:52:21.409Z,19.60
2018-06-01T16:54:48.844Z,19.50
2018-06-01T16:57:16.335Z,19.50
2018-06-01T16:59:43.771Z,19.40
2018-06-01T17:02:11.215Z,19.40
2018-06-01T17:04:38.665Z,19.40
2018-06-01T17:07:06.904Z,19.20
2018-06-01T17:09:34.332Z,19.20
2018-06-01T17:12:01.776Z,19.20
2018-06-01T17:14:29.220Z,19.10
2018-06-01T17:16:56.657Z,19.00
2018-06-01T17:19:24.859Z,18.80
2018-06-01T17:21:52.347Z,18.80
2018-06-01T17:24:19.802Z,18.70
2018-06-01T17:26:47.267Z,18.60
2018-06-01T17:29:14.718Z,18.60
2018-06-01T17:31:42.176Z,18.60
2018-06-01T17:34:09.712Z,18.70
2018-06-01T17:36:37.160Z,18.60
2018-06-01T17:39:05.383Z,18.60
2018-06-01T17:41:32.844Z,18.60
2018-06-01T17:44:00.258Z,18.60
2018-06-01T17:46:27.727Z,18.50
2018-06-01T17:48:55.171Z,18.50
2018-06-01T17:51:22.639Z,18.50
2018-06-01T17:53:50.095Z,18.40
2018-06-01T17:56:17.555Z,18.40
2018-06-01T17:58:45.011Z,18.40
2018-06-01T18:01:12.476Z,18.30
2018-06-01T18:03:39.909Z,18.30
2018-06-01T18:06:07.335Z,18.30
2018-06-01T18:08:35.540Z,18.20
2018-06-01T18:11:02.977Z,18.20
2018-06-01T18:13:31.299Z,18.10
2018-06-01T18:15:58.753Z,18.10
2018-06-01T18:18:26.209Z,18.10
2018-06-01T18:20:53.659Z,18.10
2018-06-01T18:23:21.151Z,18.00
2018-06-01T18:25:48.688Z,18.00
2018-06-01T18:28:16.114Z,17.90
2018-06-01T18:30:43.552Z,17.90
2018-06-01T18:33:11.767Z,17.90
2018-06-01T18:35:39.205Z,17.90
2018-06-01T18:38:06.699Z,17.90
2018-06-01T18:40:34.239Z,17.90
2018-06-01T18:43:01.709Z,17.90
2018-06-01T18:45:29.163Z,17.80
2018-06-01T18:47:56.614Z,17.80
2018-06-01T18:50:24.080Z,17.70
2018-06-01T18:52:51.535Z,17.70
2018-06-01T18:55:19.003Z,17.60
2018-06-01T18:57:46.443Z,17.50
2018-06-01T19:00:13.875Z,17.50
2018-06-01T19:02:41.319Z,17.40
2018-06-01T19:05:09.543Z,17.40
2018-06-01T19:07:36.992Z,17.30
2018-06-01T19:10:04.464Z,17.30
2018-06-01T19:12:31.899Z,17.20
2018-06-01T19:14:59.331Z,17.20
2018-06-01T19:17:26.826Z,17.10
2018-06-01T19:19:54.297Z,17.10
2018-06-01T19:22:21.748Z,17.10
2018-06-01T19:24:49.188Z,17.00
2018-06-01T19:27:16.673Z,17.00
2018-06-01T19:29:44.110Z,16.90
2018-06-01T19:32:11.579Z,16.90
2018-06-01T19:34:39.015Z,16.80
2018-06-01T19:37:06.490Z,16.80
2018-06-01T19:39:33.918Z,16.80
2018-06-01T19:42:01.399Z,16.70
2018-06-01T19:44:28.968Z,16.70
2018-06-01T19:46:56.426Z,16.70
2018-06-01T19:49:23.875Z,16.70
2018-06-01T19:51:51.317Z,16.70
2018-06-01T19:54:18.751Z,16.60
2018-06-01T19:56:46.194Z,16.70
2018-06-01T19:59:14.423Z,16.60
2018-06-01T20:01:41.855Z,16.70
2018-06-01T20:04:09.307Z,16.60
2018-06-01T20:06:36.796Z,16.60
2018-06-01T20:09:04.355Z,16.60
2018-06-01T20:11:31.791Z,16.60
2018-06-01T20:13:59.256Z,16.60
2018-06-01T20:16:26.691Z,16.50
2018-06-01T20:18:54.124Z,16.50
2018-06-01T20:21:22.390Z,16.50
2018-06-01T20:23:49.826Z,16.50
2018-06-01T20:26:17.261Z,16.40
2018-06-01T20:28:44.699Z,16.40
2018-06-01T20:31:12.194Z,16.40
2018-06-01T20:33:40.643Z,16.40
2018-06-01T20:36:08.084Z,16.40
2018-06-01T20:38:36.291Z,16.30
2018-06-01T20:41:03.748Z,16.30
2018-06-01T20:43:31.208Z,16.30
2018-06-01T20:45:58.656Z,16.30
2018-06-01T20:48:26.083Z,16.30
2018-06-01T20:50:54.280Z,16.20
2018-06-01T20:53:21.763Z,16.20
2018-06-01T20:55:49.207Z,16.20
2018-06-01T20:58:16.673Z,16.20
2018-06-01T21:00:44.140Z,16.20
2018-06-01T21:03:11.599Z,16.20
2018-06-01T21:05:39.049Z,16.20
2018-06-01T21:08:06.503Z,16.20
2018-06-01T21:10:33.999Z,16.20
2018-06-01T21:13:01.519Z,16.20
2018-06-01T21:15:28.926Z,16.20
2018-06-01T21:17:57.154Z,16.10
2018-06-01T21:20:24.584Z,16.10
2018-06-01T21:22:52.262Z,16.10
2018-06-01T21:25:19.690Z,16.10
2018-06-01T21:27:47.879Z,16.10
2018-06-01T21:30:15.312Z,16.10
2018-06-01T21:32:43.558Z,16.10
2018-06-01T21:35:11.010Z,16.10
2018-06-01T21:37:38.464Z,16.10
2018-06-01T21:40:05.888Z,16.10
2018-06-01T21:42:33.376Z,16.10
2018-06-01T21:45:00.818Z,16.10
2018-06-01T21:47:28.280Z,16.10
2018-06-01T21:49:55.744Z,16.10
2018-06-01T21:52:23.184Z,16.10
2018-06-01T21:54:50.665Z,16.10
2018-06-01T21:57:18.118Z,16.10
2018-06-01T21:59:45.671Z,16.10
2018-06-01T22:02:13.218Z,16.10
2018-06-01T22:04:40.691Z,16.10
2018-06-01T22:07:08.132Z,16.10
2018-06-01T22:09:35.562Z,16.10
2018-06-01T22:12:03.795Z,16.10
2018-06-01T22:14:31.348Z,16.10
2018-06-01T22:16:58.811Z,16.10
2018-06-01T22:19:26.259Z,16.10
2018-06-01T22:21:53.815Z,16.10
2018-06-01T22:24:21.259Z,16.10
2018-06-01T22:26:48.699Z,16.10
2018-06-01T22:29:16.139Z,16.10
2018-06-01T22:31:44.360Z,16.10
2018-06-01T22:34:11.789Z,16.00
2018-06-01T22:36:39.255Z,16.10
2018-06-01T22:39:06.848Z,16.10
2018-06-01T22:41:34.380Z,16.10
2018-06-01T22:44:01.791Z,16.10
2018-06-01T22:46:30.010Z,16.10
2018-06-01T22:48:57.431Z,16.10
2018-06-01T22:51:25.744Z,16.10
2018-06-01T22:53:53.201Z,16.10
2018-06-01T22:56:20.659Z,16.20
2018-06-01T22:58:48.085Z,16.20
2018-06-01T23:01:16.278Z,16.20
2018-06-01T23:03:43.711Z,16.20
2018-06-01T23:06:12.065Z,16.20
2018-06-01T23:08:39.499Z,16.20
2018-06-01T23:11:07.045Z,16.20
2018-06-01T23:13:34.501Z,16.20
2018-06-01T23:16:01.993Z,16.20
2018-06-01T23:18:29.438Z,16.20
2018-06-01T23:20:56.903Z,16.20
2018-06-01T23:23:24.452Z,16.20
2018-06-01T23:25:51.941Z,16.20
2018-06-01T23:28:19.389Z,16.20
2018-06-01T23:30:46.835Z,16.30
2018-06-01T23:33:14.287Z,16.20
2018-06-01T23:35:41.734Z,16.30
2018-06-01T23:38:09.167Z,16.20
2018-06-01T23:40:36.598Z,16.30
2018-06-01T23:43:06.482Z,16.30
2018-06-01T23:45:33.984Z,16.30
2018-06-01T23:48:01.447Z,16.30
2018-06-01T23:50:29.639Z,16.30
2018-06-01T23:52:57.135Z,16.30
2018-06-01T23:55:24.587Z,16.30
2018-06-01T23:57:52.035Z,16.30
